Time;durP1;ratioP1;P1;durP2;ratioP2;P2;SDS_P1;SDS_P2;PMS_P1;PMS_P2;Temp;Humidity;BMP_temperature;BMP_pressure;BME280_temperature;BME280_humidity;BME280_pressure;Samples;Min_cycle;Max_cycle;Signal;HPM_P1;HPM_P2
2023/03/11 00:02:23;;;;;;;2.10;0.60;;;2.10;99.90;;;;;;6251546;22;20026;-84
2023/03/11 00:04:49;;;;;;;1.83;0.47;;;2.10;99.90;;;;;;6251645;22;20008;-84
2023/03/11 00:07:15;;;;;;;1.85;0.50;;;2.10;99.90;;;;;;6251454;22;20103;-84
2023/03/11 00:09:41;;;;;;;2.55;0.63;;;2.10;99.90;;;;;;6251533;22;20090;-84
2023/03/11 00:12:07;;;;;;;4.72;0.50;;;2.10;99.90;;;;;;6251994;22;20383;-84
2023/03/11 00:14:33;;;;;;;4.50;0.60;;;2.10;99.90;;;;;;6251062;22;20012;-84
2023/03/11 00:16:58;;;;;;;7.75;0.70;;;2.10;99.90;;;;;;6251337;22;20023;-84
2023/03/11 00:19:24;;;;;;;2.33;0.60;;;2.10;99.90;;;;;;6251827;22;20016;-84
2023/03/11 00:21:50;;;;;;;3.58;0.40;;;2.10;99.90;;;;;;6251333;22;20033;-84
2023/03/11 00:24:15;;;;;;;2.45;0.50;;;2.20;99.90;;;;;;6251367;22;20008;-84
2023/03/11 00:26:41;;;;;;;5.60;0.65;;;2.20;99.90;;;;;;6251059;22;20398;-84
2023/03/11 00:29:07;;;;;;;8.73;0.98;;;2.20;99.90;;;;;;6251325;22;20018;-84
2023/03/11 00:31:33;;;;;;;3.00;0.43;;;2.10;99.90;;;;;;6251702;22;20049;-84
2023/03/11 00:35:12;;;;;;;4.60;0.75;;;2.20;99.90;;;;;;6250828;22;20094;-84
2023/03/11 00:37:38;;;;;;;4.32;0.75;;;2.20;99.90;;;;;;6251569;22;20046;-84
2023/03/11 00:40:07;;;;;;;1.25;0.47;;;2.20;99.90;;;;;;6251059;22;20455;-84
2023/03/11 00:42:33;;;;;;;4.85;0.88;;;2.20;99.90;;;;;;6251043;22;20466;-84
2023/03/11 00:44:59;;;;;;;2.63;0.40;;;2.20;99.90;;;;;;6250794;22;20020;-84
2023/03/11 00:47:25;;;;;;;3.67;0.90;;;2.20;99.90;;;;;;6251151;22;20015;-84
2023/03/11 00:49:50;;;;;;;5.65;0.80;;;2.20;99.90;;;;;;6251157;22;20103;-84
2023/03/11 00:52:16;;;;;;;5.35;0.75;;;2.20;99.90;;;;;;6251038;22;20509;-84
2023/03/11 00:54:41;;;;;;;4.60;0.95;;;2.10;99.90;;;;;;6251056;22;20054;-84
2023/03/11 00:57:07;;;;;;;2.05;0.38;;;2.10;99.90;;;;;;6251050;22;20016;-84
2023/03/11 00:59:34;;;;;;;3.28;0.68;;;2.20;99.90;;;;;;6251112;22;20019;-84
2023/03/11 01:01:59;;;;;;;5.82;1.13;;;2.20;99.90;;;;;;6250879;22;20313;-83
2023/03/11 01:04:25;;;;;;;1.98;0.47;;;2.20;99.90;;;;;;6250993;22;20071;-83
2023/03/11 01:06:51;;;;;;;0.85;0.38;;;2.20;99.90;;;;;;6250922;22;20101;-83
2023/03/11 01:09:29;;;;;;;3.90;0.40;;;2.20;99.90;;;;;;6250511;22;20012;-84
2023/03/11 01:11:55;;;;;;;7.55;0.52;;;2.20;99.90;;;;;;6250786;22;20023;-83
2023/03/11 01:14:21;;;;;;;2.60;0.55;;;2.20;99.90;;;;;;6250780;22;20043;-83
2023/03/11 01:16:47;;;;;;;2.47;0.50;;;2.20;99.90;;;;;;6250467;22;20383;-83
2023/03/11 01:19:13;;;;;;;2.08;0.40;;;2.20;99.90;;;;;;6250866;22;20015;-83
2023/03/11 01:21:38;;;;;;;3.65;0.90;;;2.20;99.90;;;;;;6250855;22;20023;-83
2023/03/11 01:24:04;;;;;;;1.48;0.35;;;2.20;99.90;;;;;;6250882;22;20087;-83
2023/03/11 01:26:30;;;;;;;2.58;0.40;;;2.10;99.90;;;;;;6251204;22;20027;-83
2023/03/11 01:28:55;;;;;;;12.65;0.80;;;2.10;99.90;;;;;;6250744;22;20023;-83
2023/03/11 01:31:21;;;;;;;3.92;0.40;;;2.10;99.90;;;;;;6250831;22;20016;-83
2023/03/11 01:33:47;;;;;;;2.85;0.65;;;2.10;99.90;;;;;;6277681;22;20340;-83
2023/03/11 01:36:14;;;;;;;1.20;0.32;;;2.10;99.90;;;;;;6278039;22;20335;-83
2023/03/11 01:38:39;;;;;;;8.13;0.60;;;2.10;99.90;;;;;;6278111;22;20008;-83
2023/03/11 01:41:05;;;;;;;2.25;0.80;;;2.10;99.90;;;;;;6277999;22;20316;-83
2023/03/11 01:43:43;;;;;;;3.28;0.40;;;2.10;99.90;;;;;;6250620;22;20065;-83
2023/03/11 01:46:12;;;;;;;4.00;0.20;;;2.10;99.90;;;;;;6250588;22;20015;-83
2023/03/11 01:48:38;;;;;;;1.80;0.32;;;2.10;99.90;;;;;;6277949;22;20016;-83
2023/03/11 01:53:54;;;;;;;0.28;0.20;;;2.00;99.90;;;;;;6250183;22;20020;-83
2023/03/11 01:56:20;;;;;;;1.42;0.40;;;2.10;99.90;;;;;;6249784;22;20374;-83
2023/03/11 01:58:48;;;;;;;2.75;0.55;;;2.10;99.90;;;;;;6250438;22;20103;-83
2023/03/11 02:01:27;;;;;;;4.00;0.75;;;2.10;99.90;;;;;;6250468;22;20015;-83
2023/03/11 02:03:54;;;;;;;5.40;0.85;;;2.10;99.90;;;;;;6250137;22;20020;-83
2023/03/11 02:06:24;;;;;;;10.60;1.08;;;2.10;99.90;;;;;;6250483;22;20022;-83
2023/03/11 02:08:50;;;;;;;3.63;0.70;;;2.10;99.90;;;;;;6250983;22;20026;-84
2023/03/11 02:11:23;;;;;;;3.60;0.80;;;2.00;99.90;;;;;;6250380;22;20094;-83
2023/03/11 02:13:51;;;;;;;2.38;0.50;;;2.10;99.90;;;;;;6250223;22;20018;-83
2023/03/11 02:16:17;;;;;;;2.22;1.05;;;2.10;99.90;;;;;;6250150;22;20386;-83
2023/03/11 02:18:43;;;;;;;0.63;0.35;;;2.20;99.90;;;;;;6250412;22;20019;-83
2023/03/11 02:21:26;;;;;;;7.43;0.90;;;2.20;99.90;;;;;;6250160;22;20016;-83
2023/03/11 02:23:58;;;;;;;0.55;0.28;;;2.20;99.90;;;;;;6250099;22;20018;-84
2023/03/11 02:27:01;;;;;;;3.88;0.55;;;2.10;99.90;;;;;;6250277;22;20497;-83
2023/03/11 02:29:28;;;;;;;4.13;0.38;;;2.10;99.90;;;;;;6245772;22;20027;-83
2023/03/11 02:31:55;;;;;;;3.22;0.80;;;2.10;99.90;;;;;;6250089;22;20012;-83
2023/03/11 02:34:30;;;;;;;1.80;0.40;;;2.10;99.90;;;;;;6277364;22;20034;-83
2023/03/11 02:36:59;;;;;;;3.30;0.40;;;2.10;99.90;;;;;;6249670;22;20047;-83
2023/03/11 02:39:37;;;;;;;6.72;0.82;;;2.10;99.90;;;;;;6250150;22;20016;-83
2023/03/11 02:42:14;;;;;;;2.63;0.50;;;2.00;99.90;;;;;;6277214;22;20096;-83
2023/03/11 02:44:42;;;;;;;3.38;0.38;;;2.00;99.90;;;;;;6250540;22;20018;-83
2023/03/11 02:47:09;;;;;;;4.78;0.60;;;2.00;99.90;;;;;;6249953;22;20455;-83
2023/03/11 02:49:35;;;;;;;2.63;0.68;;;2.00;99.90;;;;;;6249765;22;20024;-82
2023/03/11 02:52:01;;;;;;;4.45;0.55;;;2.00;99.90;;;;;;6250015;22;20023;-83
2023/03/11 02:54:27;;;;;;;3.20;0.40;;;1.90;99.90;;;;;;6249984;22;20094;-82
2023/03/11 02:56:53;;;;;;;4.35;0.60;;;1.90;99.90;;;;;;6250487;22;20047;-82
2023/03/11 02:59:18;;;;;;;2.22;0.57;;;1.90;99.90;;;;;;6277139;22;20015;-82
2023/03/11 03:01:44;;;;;;;3.05;0.52;;;2.00;99.90;;;;;;6249937;22;20392;-82
2023/03/11 03:04:10;;;;;;;4.20;0.60;;;1.90;99.90;;;;;;6277084;22;20020;-82
2023/03/11 03:06:36;;;;;;;5.45;0.65;;;2.00;99.90;;;;;;6276748;22;20016;-82
2023/03/11 03:09:02;;;;;;;4.32;1.45;;;1.90;99.90;;;;;;6249959;22;20020;-82
2023/03/11 03:11:33;;;;;;;5.00;0.95;;;1.90;99.90;;;;;;6249543;22;20020;-82
2023/03/11 03:13:59;;;;;;;3.28;1.17;;;1.90;99.90;;;;;;6249666;22;20027;-82
2023/03/11 03:16:24;;;;;;;1.83;0.77;;;1.90;99.90;;;;;;6249759;22;20016;-82
2023/03/11 03:18:51;;;;;;;2.33;0.43;;;1.90;99.90;;;;;;6277165;22;20023;-82
2023/03/11 03:21:17;;;;;;;8.15;0.73;;;1.90;99.90;;;;;;6276813;22;20347;-82
2023/03/11 03:23:42;;;;;;;0.93;0.43;;;1.90;99.90;;;;;;6277248;22;20417;-82
2023/03/11 03:26:12;;;;;;;11.07;0.80;;;1.90;99.90;;;;;;6249395;22;20028;-82
2023/03/11 03:28:38;;;;;;;2.17;1.13;;;1.90;99.90;;;;;;6249866;22;20017;-82
2023/03/11 03:31:08;;;;;;;3.13;0.60;;;1.90;99.90;;;;;;6249849;22;20030;-82
2023/03/11 03:33:34;;;;;;;3.47;0.50;;;1.90;99.90;;;;;;6276666;22;20016;-82
2023/03/11 03:36:00;;;;;;;5.78;0.40;;;1.90;99.90;;;;;;6249438;22;20055;-82
2023/03/11 03:38:26;;;;;;;3.25;0.95;;;1.90;99.90;;;;;;6277451;22;20430;-82
2023/03/11 03:40:51;;;;;;;3.88;0.50;;;1.90;99.90;;;;;;6249744;22;20044;-82
2023/03/11 03:43:17;;;;;;;5.40;0.65;;;1.90;99.90;;;;;;6249809;22;20024;-82
2023/03/11 03:45:42;;;;;;;2.70;1.10;;;1.90;99.90;;;;;;6249648;22;20031;-82
2023/03/11 03:48:08;;;;;;;0.80;0.38;;;1.80;99.90;;;;;;6277100;22;20054;-82
2023/03/11 03:50:34;;;;;;;5.25;0.52;;;1.90;99.90;;;;;;6249779;22;20101;-82
2023/03/11 03:52:59;;;;;;;4.80;0.45;;;1.90;99.90;;;;;;6276769;22;20101;-82
2023/03/11 03:55:25;;;;;;;2.28;0.50;;;1.90;99.90;;;;;;6249579;22;20344;-81
2023/03/11 03:57:50;;;;;;;4.22;0.60;;;1.90;99.90;;;;;;6276737;22;20324;-81
2023/03/11 04:00:17;;;;;;;2.03;0.50;;;1.80;99.90;;;;;;6249707;22;20015;-82
2023/03/11 04:02:42;;;;;;;1.83;0.25;;;1.90;99.90;;;;;;6277093;22;20027;-81
2023/03/11 04:05:08;;;;;;;3.35;0.43;;;1.90;99.90;;;;;;6249610;22;20015;-81
2023/03/11 04:07:35;;;;;;;3.08;0.43;;;1.90;99.90;;;;;;6249628;22;20019;-82
2023/03/11 04:10:06;;;;;;;2.15;0.60;;;1.90;99.90;;;;;;6249588;22;20020;-82
2023/03/11 04:12:32;;;;;;;1.83;0.50;;;1.90;99.90;;;;;;6249565;22;20051;-82
2023/03/11 04:14:58;;;;;;;2.22;0.43;;;1.90;99.90;;;;;;6249438;22;20022;-82
2023/03/11 04:17:23;;;;;;;5.53;0.65;;;1.90;99.90;;;;;;6276516;22;20023;-82
2023/03/11 04:19:49;;;;;;;20.65;2.65;;;1.90;99.90;;;;;;6250447;22;20012;-81
2023/03/11 04:22:15;;;;;;;1.42;0.20;;;1.90;99.90;;;;;;6251107;22;20016;-81
2023/03/11 04:24:40;;;;;;;5.93;0.40;;;1.90;99.90;;;;;;6251342;22;20094;-81
2023/03/11 04:27:25;;;;;;;3.17;0.75;;;1.90;99.90;;;;;;6265889;22;20061;-81
2023/03/11 04:29:50;;;;;;;8.73;1.10;;;1.80;99.90;;;;;;6251293;22;20024;-81
2023/03/11 04:32:16;;;;;;;5.40;0.50;;;1.80;99.90;;;;;;6278805;22;20093;-81
2023/03/11 04:34:45;;;;;;;2.45;0.50;;;1.80;99.90;;;;;;6251004;22;20023;-81
2023/03/11 04:37:11;;;;;;;5.05;0.85;;;1.80;99.90;;;;;;6278208;22;20024;-81
2023/03/11 04:39:37;;;;;;;3.38;0.70;;;1.80;99.90;;;;;;6278235;22;20022;-81
2023/03/11 04:42:02;;;;;;;6.63;0.70;;;1.80;99.90;;;;;;6277958;22;20332;-81
2023/03/11 04:44:28;;;;;;;2.38;0.50;;;1.80;99.90;;;;;;6250574;22;20016;-81
2023/03/11 04:46:54;;;;;;;2.20;0.38;;;1.80;99.90;;;;;;6250945;22;20340;-81
2023/03/11 04:49:20;;;;;;;5.43;0.93;;;1.80;99.90;;;;;;6250979;22;20047;-82
2023/03/11 04:51:45;;;;;;;4.13;0.40;;;1.80;99.90;;;;;;6250990;22;20352;-82
2023/03/11 04:54:11;;;;;;;5.00;1.05;;;1.80;99.90;;;;;;6250945;22;20015;-82
2023/03/11 04:56:37;;;;;;;5.15;0.70;;;1.80;99.90;;;;;;6250893;22;20072;-82
2023/03/11 04:59:02;;;;;;;3.25;0.90;;;1.70;99.90;;;;;;6250937;22;20039;-81
2023/03/11 05:01:28;;;;;;;3.15;0.60;;;1.70;99.90;;;;;;6251006;22;20027;-81
2023/03/11 05:03:53;;;;;;;1.23;0.30;;;1.70;99.90;;;;;;6278746;22;20332;-81
2023/03/11 05:06:19;;;;;;;8.52;1.13;;;1.70;99.90;;;;;;6278303;22;20019;-81
2023/03/11 05:08:46;;;;;;;2.33;0.60;;;1.70;99.90;;;;;;6250766;22;20506;-81
2023/03/11 05:11:11;;;;;;;5.15;0.50;;;1.70;99.90;;;;;;6250787;22;20094;-81
2023/03/11 05:13:37;;;;;;;7.28;0.68;;;1.70;99.90;;;;;;6277914;22;20101;-81
2023/03/11 05:16:03;;;;;;;7.75;1.15;;;1.70;99.90;;;;;;6250806;22;20015;-81
2023/03/11 05:18:30;;;;;;;3.60;0.70;;;1.70;99.90;;;;;;6250802;22;20095;-81
2023/03/11 05:20:56;;;;;;;1.02;0.30;;;1.70;99.90;;;;;;6278216;22;20051;-81
2023/03/11 05:23:22;;;;;;;3.50;0.40;;;1.70;99.90;;;;;;6250751;22;20023;-81
2023/03/11 05:25:48;;;;;;;2.25;0.52;;;1.70;99.90;;;;;;6278128;22;20019;-81
2023/03/11 05:28:13;;;;;;;1.30;0.38;;;1.70;99.90;;;;;;6278204;22;20019;-81
2023/03/11 05:30:39;;;;;;;3.38;0.88;;;1.70;99.90;;;;;;6250948;22;20020;-82
2023/03/11 05:33:04;;;;;;;4.07;0.35;;;1.70;99.90;;;;;;6277769;22;20114;-82
2023/03/11 05:35:32;;;;;;;4.40;1.15;;;1.70;99.90;;;;;;6277975;22;20114;-82
2023/03/11 05:37:58;;;;;;;6.85;0.73;;;1.60;99.90;;;;;;6250512;22;20016;-81
2023/03/11 05:40:23;;;;;;;5.13;0.40;;;1.60;99.90;;;;;;6250614;22;20090;-81
2023/03/11 05:42:50;;;;;;;3.33;0.32;;;1.60;99.90;;;;;;6250586;22;20015;-81
2023/03/11 05:45:16;;;;;;;3.03;0.90;;;1.60;99.90;;;;;;6250551;22;20448;-78
2023/03/11 05:47:42;;;;;;;1.17;0.30;;;1.60;99.90;;;;;;6250494;22;20015;-80
2023/03/11 05:50:10;;;;;;;6.63;0.60;;;1.60;99.90;;;;;;6250562;22;20020;-81
2023/03/11 05:52:36;;;;;;;3.92;0.63;;;1.60;99.90;;;;;;6277643;22;20020;-81
2023/03/11 05:55:02;;;;;;;2.38;0.70;;;1.50;99.90;;;;;;6250179;22;20078;-81
2023/03/11 05:57:28;;;;;;;5.43;0.50;;;1.50;99.90;;;;;;6277758;22;20038;-81
2023/03/11 05:59:53;;;;;;;6.00;0.80;;;1.50;99.90;;;;;;6250427;22;20435;-82
2023/03/11 06:02:20;;;;;;;5.68;0.50;;;1.50;99.90;;;;;;6250203;22;20023;-82
2023/03/11 06:04:46;;;;;;;4.78;0.52;;;1.50;99.90;;;;;;6249598;22;20091;-82
2023/03/11 06:07:14;;;;;;;5.80;0.68;;;1.50;99.90;;;;;;6248965;22;20011;-81
2023/03/11 06:09:39;;;;;;;5.65;0.60;;;1.40;99.90;;;;;;6277394;22;20011;-81
2023/03/11 06:12:05;;;;;;;6.75;0.63;;;1.50;99.90;;;;;;6250147;22;20395;-81
2023/03/11 06:14:31;;;;;;;4.45;1.27;;;1.50;99.90;;;;;;6277221;22;20462;-81
2023/03/11 06:16:57;;;;;;;7.97;1.23;;;1.50;99.90;;;;;;6250062;22;20072;-82
2023/03/11 06:19:24;;;;;;;5.45;0.60;;;1.50;99.90;;;;;;6277516;22;20091;-82
2023/03/11 06:21:50;;;;;;;4.03;0.68;;;1.50;99.90;;;;;;6249774;22;20069;-81
2023/03/11 06:24:16;;;;;;;2.92;0.57;;;1.50;99.90;;;;;;6249698;22;20022;-81
2023/03/11 06:26:42;;;;;;;5.03;0.50;;;1.50;99.90;;;;;;6250127;22;20016;-82
2023/03/11 06:29:12;;;;;;;2.55;0.57;;;1.50;99.90;;;;;;6250044;22;20012;-81
2023/03/11 06:31:38;;;;;;;6.80;0.55;;;1.50;99.90;;;;;;6250024;22;20415;-81
2023/03/11 06:34:05;;;;;;;3.03;0.40;;;1.60;99.90;;;;;;6244684;23;20016;-81
2023/03/11 06:36:31;;;;;;;2.88;0.50;;;1.70;99.90;;;;;;6246030;22;20482;-81
2023/03/11 06:38:57;;;;;;;3.17;0.30;;;1.70;99.90;;;;;;6246483;22;20027;-82
2023/03/11 06:41:23;;;;;;;6.85;0.57;;;1.80;99.90;;;;;;6244376;23;20016;-81
2023/03/11 06:43:50;;;;;;;3.97;0.50;;;1.90;99.90;;;;;;6246390;22;20351;-82
2023/03/11 06:46:19;;;;;;;3.30;0.40;;;2.00;99.90;;;;;;6244551;23;20087;-82
2023/03/11 06:48:46;;;;;;;2.47;0.40;;;2.10;99.90;;;;;;6246315;22;20023;-82
2023/03/11 06:51:12;;;;;;;4.38;0.55;;;2.20;99.90;;;;;;6244715;23;20020;-82
2023/03/11 06:53:38;;;;;;;6.13;1.17;;;2.30;99.90;;;;;;6244145;23;20082;-81
2023/03/11 06:56:04;;;;;;;5.10;0.68;;;2.40;99.90;;;;;;6245098;23;20372;-82
2023/03/11 06:58:31;;;;;;;3.47;0.60;;;2.50;99.90;;;;;;6244620;23;20066;-82
2023/03/11 07:01:01;;;;;;;4.35;0.57;;;2.50;99.90;;;;;;6244754;23;20016;-81
2023/03/11 07:03:28;;;;;;;5.03;1.45;;;2.60;99.90;;;;;;6244666;23;20344;-81
2023/03/11 07:05:53;;;;;;;6.88;0.95;;;2.70;99.90;;;;;;6244559;23;20286;-82
2023/03/11 07:08:19;;;;;;;2.55;0.75;;;2.80;99.90;;;;;;6244595;23;20077;-82
2023/03/11 07:11:09;;;;;;;5.65;0.68;;;2.80;99.90;;;;;;6244545;23;20087;-83
2023/03/11 07:13:35;;;;;;;5.75;1.23;;;2.90;99.90;;;;;;6244669;23;20027;-82
2023/03/11 07:16:07;;;;;;;2.97;0.70;;;2.90;99.90;;;;;;6244236;23;20070;-82
2023/03/11 07:18:34;;;;;;;2.47;0.65;;;3.00;99.90;;;;;;6244519;23;20020;-82
2023/03/11 07:21:03;;;;;;;7.00;0.80;;;3.00;99.90;;;;;;6244565;23;20016;-82
2023/03/11 07:23:29;;;;;;;7.75;1.02;;;3.10;99.90;;;;;;6246078;22;20027;-86
2023/03/11 07:25:55;;;;;;;4.13;1.42;;;3.20;99.90;;;;;;6246057;22;20008;-82
2023/03/11 07:28:25;;;;;;;5.70;0.80;;;3.20;99.90;;;;;;6244602;23;20024;-82
2023/03/11 07:30:52;;;;;;;3.75;0.68;;;3.30;99.90;;;;;;6244466;23;20040;-83
2023/03/11 07:33:18;;;;;;;3.67;0.65;;;3.30;99.90;;;;;;6243335;23;20020;-85
2023/03/11 07:35:44;;;;;;;7.32;1.00;;;3.30;99.90;;;;;;6244244;23;20024;-80
2023/03/11 07:38:10;;;;;;;4.50;1.10;;;3.30;99.90;;;;;;6245785;23;20100;-83
2023/03/11 07:40:35;;;;;;;3.25;0.60;;;3.30;99.90;;;;;;6244040;23;20047;-84
2023/03/11 07:43:02;;;;;;;3.15;0.40;;;3.30;99.90;;;;;;6244232;23;20454;-81
2023/03/11 07:45:28;;;;;;;5.50;0.75;;;3.40;99.90;;;;;;6244310;23;20490;-85
2023/03/11 07:47:53;;;;;;;5.20;0.82;;;3.40;99.90;;;;;;6244053;23;20028;-84
2023/03/11 07:50:21;;;;;;;4.07;1.35;;;3.40;99.90;;;;;;6244301;23;20027;-86
2023/03/11 07:52:47;;;;;;;4.60;0.70;;;3.40;99.90;;;;;;6244463;23;20016;-84
2023/03/11 07:55:16;;;;;;;4.53;0.90;;;3.50;99.90;;;;;;6246115;23;20024;-85
2023/03/11 07:57:42;;;;;;;6.53;1.00;;;3.50;99.90;;;;;;6246317;23;20028;-84
2023/03/11 08:00:09;;;;;;;6.45;1.08;;;3.50;99.90;;;;;;6247681;22;20375;-85
2023/03/11 08:02:35;;;;;;;4.53;1.88;;;3.50;99.90;;;;;;6246244;23;20023;-89
2023/03/11 08:05:00;;;;;;;4.43;1.42;;;3.60;99.90;;;;;;6246185;23;20016;-87
2023/03/11 08:07:26;;;;;;;6.30;1.00;;;3.60;99.90;;;;;;6246071;23;20028;-84
2023/03/11 08:09:54;;;;;;;18.23;2.00;;;3.70;99.90;;;;;;6245437;23;20348;-91
2023/03/11 08:12:19;;;;;;;3.95;1.23;;;3.80;99.90;;;;;;6246182;23;20020;-86
2023/03/11 08:14:45;;;;;;;6.63;0.95;;;3.80;99.90;;;;;;6245875;23;20042;-87
2023/03/11 08:17:11;;;;;;;3.65;0.80;;;3.90;99.90;;;;;;6246071;23;20024;-85
2023/03/11 08:19:36;;;;;;;6.80;0.95;;;4.00;99.90;;;;;;6246090;23;20022;-85
2023/03/11 08:22:03;;;;;;;4.22;1.55;;;4.10;99.90;;;;;;6246114;23;20103;-86
2023/03/11 08:24:28;;;;;;;4.68;0.90;;;4.10;99.90;;;;;;6245831;23;20087;-86
2023/03/11 08:26:55;;;;;;;8.43;1.27;;;4.10;99.90;;;;;;6245674;23;20047;-87
2023/03/11 08:29:22;;;;;;;5.35;0.90;;;4.20;99.90;;;;;;6245823;23;20045;-87
2023/03/11 08:31:47;;;;;;;2.33;0.82;;;4.20;99.90;;;;;;6245998;23;20091;-88
2023/03/11 08:34:13;;;;;;;7.57;1.05;;;4.30;99.90;;;;;;6245750;23;20051;-88
2023/03/11 08:36:39;;;;;;;4.15;0.88;;;4.40;99.90;;;;;;6245755;23;20078;-86
2023/03/11 08:39:05;;;;;;;9.68;1.00;;;4.40;99.90;;;;;;6245773;23;20020;-87
2023/03/11 08:41:32;;;;;;;6.40;1.20;;;4.50;99.90;;;;;;6245845;23;20047;-86
2023/03/11 08:43:58;;;;;;;5.35;0.75;;;4.60;99.90;;;;;;6245672;23;20028;-86
2023/03/11 08:46:35;;;;;;;5.80;1.75;;;4.60;99.90;;;;;;6245729;23;20055;-86
2023/03/11 08:49:02;;;;;;;5.07;0.90;;;4.70;99.90;;;;;;6245812;23;20016;-86
2023/03/11 08:51:30;;;;;;;5.72;0.90;;;4.70;99.90;;;;;;6245553;23;20024;-86
2023/03/11 08:53:56;;;;;;;3.00;0.80;;;4.80;99.90;;;;;;6245731;23;20040;-86
2023/03/11 08:56:21;;;;;;;2.97;0.70;;;4.90;99.90;;;;;;6245471;23;20024;-85
2023/03/11 08:58:48;;;;;;;5.55;0.73;;;4.90;99.90;;;;;;6245679;23;20441;-86
2023/03/11 09:01:14;;;;;;;6.72;1.15;;;5.00;99.90;;;;;;6245349;23;20039;-86
2023/03/11 09:03:39;;;;;;;4.97;0.90;;;5.10;99.90;;;;;;6245363;23;20337;-86
2023/03/11 09:06:08;;;;;;;6.13;1.20;;;5.20;99.90;;;;;;6245214;23;20020;-86
2023/03/11 09:08:34;;;;;;;4.13;1.00;;;5.30;99.90;;;;;;6245467;23;20091;-88
2023/03/11 09:11:00;;;;;;;4.63;1.00;;;5.30;99.90;;;;;;6244795;23;20520;-88
2023/03/11 09:13:26;;;;;;;4.28;1.27;;;5.40;99.90;;;;;;6245390;23;20047;-88
2023/03/11 09:15:52;;;;;;;3.83;0.93;;;5.50;99.90;;;;;;6245046;23;20345;-88
2023/03/11 09:18:18;;;;;;;6.90;1.60;;;5.60;99.90;;;;;;6245418;23;20050;-88
2023/03/11 09:20:45;;;;;;;5.70;1.90;;;5.70;99.90;;;;;;6245327;23;20020;-89
2023/03/11 09:23:13;;;;;;;5.75;1.33;;;5.70;99.90;;;;;;6245142;23;20012;-88
2023/03/11 09:25:38;;;;;;;6.82;1.42;;;5.80;99.90;;;;;;6245618;23;20012;-88
2023/03/11 09:28:04;;;;;;;4.88;1.05;;;6.00;99.90;;;;;;6246939;22;20349;-86
2023/03/11 09:30:30;;;;;;;6.78;1.20;;;6.10;99.90;;;;;;6245486;23;20012;-84
2023/03/11 09:32:58;;;;;;;2.40;0.88;;;6.20;99.90;;;;;;6244990;22;20432;-87
2023/03/11 09:35:30;;;;;;;3.75;1.00;;;6.30;99.90;;;;;;6245171;23;20424;-84
2023/03/11 09:37:55;;;;;;;3.53;0.93;;;6.40;99.90;;;;;;6245202;23;20024;-87
2023/03/11 09:40:24;;;;;;;5.93;0.80;;;6.50;99.90;;;;;;6246814;22;20409;-87
2023/03/11 09:43:27;;;;;;;3.58;0.73;;;6.50;99.90;;;;;;6245000;23;20020;-86
2023/03/11 09:46:03;;;;;;;3.72;1.27;;;6.60;99.90;;;;;;6245355;23;20066;-86
2023/03/11 09:48:54;;;;;;;4.38;0.95;;;6.70;99.90;;;;;;6247091;22;20444;-90
2023/03/11 09:51:28;;;;;;;3.08;0.82;;;6.90;99.90;;;;;;6245447;23;20086;-88
2023/03/11 09:54:08;;;;;;;4.97;0.88;;;6.90;99.90;;;;;;6245111;23;20399;-88
2023/03/11 09:56:39;;;;;;;3.03;0.68;;;6.90;99.90;;;;;;6245146;23;20020;-88
2023/03/11 09:59:30;;;;;;;3.60;0.90;;;6.90;99.90;;;;;;6245085;23;20016;-88
2023/03/11 10:01:55;;;;;;;3.33;1.20;;;7.00;99.90;;;;;;6245113;23;20074;-88
2023/03/11 10:04:45;;;;;;;3.10;0.80;;;7.30;99.90;;;;;;6245029;23;20051;-86
2023/03/11 10:07:22;;;;;;;5.00;0.70;;;7.30;99.90;;;;;;6245231;23;20448;-85
2023/03/11 10:09:53;;;;;;;3.20;0.80;;;7.20;99.90;;;;;;6244805;23;20027;-85
2023/03/11 10:12:56;;;;;;;4.55;1.60;;;7.00;99.90;;;;;;6245136;23;20456;-85
2023/03/11 10:15:41;;;;;;;5.20;0.73;;;7.00;99.90;;;;;;6244919;23;20515;-85
2023/03/11 10:18:09;;;;;;;4.18;1.05;;;7.20;99.90;;;;;;6244527;23;20345;-85
2023/03/11 10:20:48;;;;;;;5.43;1.42;;;7.30;99.90;;;;;;6246210;23;20087;-88
2023/03/11 10:23:32;;;;;;;2.33;0.68;;;7.30;99.90;;;;;;6246830;22;20012;-89
2023/03/11 10:26:16;;;;;;;4.10;0.85;;;7.40;99.90;;;;;;6244757;23;20019;-88
2023/03/11 10:28:47;;;;;;;3.22;0.80;;;7.40;99.90;;;;;;6244958;23;20571;-88
2023/03/11 10:31:32;;;;;;;6.22;0.80;;;7.40;99.90;;;;;;6244811;23;20057;-87
2023/03/11 10:34:10;;;;;;;2.33;0.55;;;7.30;99.90;;;;;;6244611;23;20019;-87
2023/03/11 10:36:53;;;;;;;4.82;0.60;;;7.40;99.90;;;;;;6244633;23;20162;-86
2023/03/11 10:39:19;;;;;;;;;;;7.40;99.90;;;;;;6245361;23;20020;-87
2023/03/11 10:41:58;;;;;;;4.05;0.85;;;7.60;99.90;;;;;;6244992;23;19946;-86
2023/03/11 10:44:36;;;;;;;4.20;0.80;;;7.60;99.90;;;;;;6244923;23;20396;-86
2023/03/11 10:47:02;;;;;;;4.30;0.88;;;7.70;99.90;;;;;;6245212;23;20020;-88
2023/03/11 10:49:29;;;;;;;3.50;1.13;;;7.80;99.90;;;;;;6245143;23;20013;-86
2023/03/11 10:51:56;;;;;;;3.58;0.98;;;7.90;99.90;;;;;;6245068;23;20029;-87
2023/03/11 10:54:32;;;;;;;2.70;0.70;;;8.00;99.90;;;;;;6245258;23;20013;-87
2023/03/11 10:57:03;;;;;;;4.63;0.80;;;8.00;99.90;;;;;;6245116;23;20046;-86
2023/03/11 10:59:46;;;;;;;1.63;0.60;;;8.00;99.90;;;;;;6244868;23;20094;-89
2023/03/11 11:02:31;;;;;;;3.58;0.68;;;8.00;99.90;;;;;;6244860;23;20020;-88
2023/03/11 11:05:19;;;;;;;4.72;0.63;;;8.10;99.90;;;;;;6244778;23;20440;-86
2023/03/11 11:07:46;;;;;;;3.83;0.95;;;8.20;99.90;;;;;;6244394;23;20360;-86
2023/03/11 11:10:21;;;;;;;3.90;0.77;;;8.20;99.90;;;;;;6244936;23;20149;-87
2023/03/11 11:12:57;;;;;;;2.17;0.70;;;8.30;99.90;;;;;;6244919;23;20016;-86
2023/03/11 11:15:28;;;;;;;5.63;0.80;;;8.40;99.90;;;;;;6244911;23;20017;-86
2023/03/11 11:18:18;;;;;;;3.28;0.80;;;8.50;99.90;;;;;;6245005;23;20055;-85
2023/03/11 11:21:00;;;;;;;8.18;0.73;;;8.70;99.90;;;;;;6244892;23;20020;-86
2023/03/11 11:23:32;;;;;;;4.10;1.88;;;8.80;99.90;;;;;;6244910;23;20623;-86
2023/03/11 11:26:03;;;;;;;5.32;1.00;;;8.90;99.90;;;;;;6244938;23;20055;-85
2023/03/11 11:28:32;;;;;;;5.80;1.15;;;8.80;99.90;;;;;;6245618;23;20020;-84
2023/03/11 11:31:17;;;;;;;4.65;0.90;;;8.80;99.90;;;;;;6248368;22;20027;-84
2023/03/11 11:34:29;;;;;;;4.85;1.10;;;8.90;99.90;;;;;;6263507;22;20023;-84
2023/03/11 11:37:03;;;;;;;4.60;0.77;;;9.00;99.90;;;;;;6241648;22;20058;-84
2023/03/11 11:39:36;;;;;;;4.10;0.68;;;9.00;99.90;;;;;;6279233;22;20012;-84
2023/03/11 11:42:08;;;;;;;3.70;0.95;;;9.10;99.90;;;;;;6251821;22;20387;-84
2023/03/11 11:44:34;;;;;;;3.97;0.93;;;9.10;99.90;;;;;;6252011;22;20018;-89
2023/03/11 11:47:12;;;;;;;2.85;0.80;;;9.20;99.90;;;;;;6251726;22;20151;-83
2023/03/11 11:49:51;;;;;;;3.83;0.73;;;9.20;99.90;;;;;;6251616;22;20073;-87
2023/03/11 11:52:20;;;;;;;4.13;1.15;;;9.20;99.90;;;;;;6278866;22;20045;-84
2023/03/11 11:54:51;;;;;;;4.10;0.90;;;9.20;99.90;;;;;;6278700;22;20094;-84
2023/03/11 11:57:19;;;;;;;3.50;0.60;;;9.20;99.90;;;;;;6251325;22;20340;-83
2023/03/11 11:59:46;;;;;;;5.25;0.93;;;9.00;99.90;;;;;;6278541;22;20020;-83
2023/03/11 12:02:42;;;;;;;2.00;0.30;;;9.00;99.90;;;;;;6251888;22;20012;-83
2023/03/11 12:05:31;;;;;;;4.00;0.55;;;9.00;99.90;;;;;;6252008;22;20458;-83
2023/03/11 12:08:15;;;;;;;2.58;0.57;;;9.00;99.90;;;;;;6251478;22;20027;-83
2023/03/11 12:10:59;;;;;;;4.70;0.60;;;9.30;99.90;;;;;;6251559;22;20023;-87
2023/03/11 12:13:33;;;;;;;4.88;0.60;;;9.30;99.90;;;;;;6251290;22;20027;-88
2023/03/11 12:16:20;;;;;;;2.92;0.40;;;9.30;99.90;;;;;;6251840;22;20090;-88
2023/03/11 12:19:03;;;;;;;3.05;0.50;;;9.30;99.90;;;;;;6251437;22;20015;-89
2023/03/11 12:21:53;;;;;;;1.60;0.40;;;9.40;99.90;;;;;;6251325;22;20015;-89
2023/03/11 12:24:21;;;;;;;1.73;0.45;;;9.50;99.90;;;;;;6251430;22;20019;-88
2023/03/11 12:26:51;;;;;;;3.67;0.25;;;9.70;99.90;;;;;;6251195;22;20026;-89
2023/03/11 12:29:24;;;;;;;3.25;0.40;;;9.80;99.90;;;;;;6251248;22;20439;-88
2023/03/11 12:31:52;;;;;;;1.52;0.28;;;9.80;99.90;;;;;;6251345;22;20026;-88
2023/03/11 12:34:26;;;;;;;3.13;0.35;;;9.60;99.90;;;;;;6251202;22;20023;-88
2023/03/11 12:36:54;;;;;;;1.15;0.10;;;9.30;99.90;;;;;;6278281;22;20375;-89
2023/03/11 12:39:24;;;;;;;2.55;0.38;;;9.10;99.90;;;;;;6277856;22;20400;-89
2023/03/11 12:42:09;;;;;;;1.05;0.20;;;8.80;99.90;;;;;;6251027;22;20329;-87
2023/03/11 12:44:36;;;;;;;2.75;0.30;;;8.80;99.90;;;;;;6251039;22;20019;-84
2023/03/11 12:47:17;;;;;;;3.47;0.22;;;8.70;99.90;;;;;;6278190;22;20019;-85
2023/03/11 12:50:08;;;;;;;2.63;0.90;;;8.70;99.90;;;;;;6278420;22;20015;-85
2023/03/11 12:52:51;;;;;;;3.70;0.40;;;8.70;99.90;;;;;;6277091;22;20011;-85
2023/03/11 12:55:17;;;;;;;3.65;0.22;;;8.80;99.90;;;;;;6278136;22;20052;-85
2023/03/11 12:58:00;;;;;;;1.77;0.35;;;8.90;99.90;;;;;;6278338;22;20023;-85
2023/03/11 13:00:33;;;;;;;3.30;0.32;;;8.90;99.90;;;;;;6278921;22;20054;-85
2023/03/11 13:03:15;;;;;;;3.75;0.30;;;8.80;99.90;;;;;;6250940;22;20027;-84
2023/03/11 13:06:10;;;;;;;3.38;0.30;;;9.00;99.90;;;;;;6278210;22;20457;-85
2023/03/11 13:08:48;;;;;;;2.60;0.30;;;8.80;99.90;;;;;;6250875;22;20019;-83
2023/03/11 13:11:32;;;;;;;2.42;0.28;;;8.90;99.90;;;;;;6250937;22;20024;-87
2023/03/11 13:14:25;;;;;;;1.52;0.30;;;8.90;99.90;;;;;;6250854;22;20015;-82
2023/03/11 13:16:50;;;;;;;1.08;0.30;;;8.90;99.90;;;;;;6250697;22;20069;-86